createdAt,value
2019-02-20T00:00:02.114Z,-0.41
2019-02-20T00:02:35.776Z,-0.27
2019-02-20T00:05:09.741Z,-0.63
2019-02-20T00:07:43.695Z,-0.68
2019-02-20T00:10:17.539Z,-0.53
2019-02-20T00:12:51.095Z,-0.45
2019-02-20T00:15:25.181Z,-0.49
2019-02-20T00:17:59.181Z,-0.58
2019-02-20T00:20:32.799Z,-0.61
2019-02-20T00:23:08.224Z,-0.45
2019-02-20T00:25:42.171Z,-0.62
2019-02-20T00:28:15.775Z,-0.59
2019-02-20T00:30:49.609Z,-0.61
2019-02-20T00:33:23.564Z,-0.88
2019-02-20T00:35:58.490Z,-0.70
2019-02-20T00:38:33.328Z,-0.66
2019-02-20T00:41:07.217Z,-0.71
2019-02-20T00:43:40.925Z,-0.58
2019-02-20T00:46:14.757Z,-0.34
2019-02-20T00:48:48.101Z,-0.35
2019-02-20T00:51:21.875Z,-0.12
2019-02-20T00:53:55.663Z,0.23
2019-02-20T00:56:29.246Z,0.57
2019-02-20T00:59:04.004Z,0.34
2019-02-20T01:01:38.178Z,0.62
2019-02-20T01:04:11.755Z,0.83
2019-02-20T01:06:45.565Z,0.39
2019-02-20T01:09:19.280Z,-0.01
2019-02-20T01:11:54.592Z,0.34
2019-02-20T01:14:28.341Z,-0.29
2019-02-20T01:17:03.055Z,0.24
2019-02-20T01:19:36.820Z,0.42
2019-02-20T01:22:10.572Z,0.55
2019-02-20T01:24:45.835Z,0.39
2019-02-20T01:27:19.501Z,0.52
2019-02-20T01:29:53.485Z,0.83
2019-02-20T01:32:27.774Z,0.92
2019-02-20T01:35:01.500Z,1.05
2019-02-20T01:37:36.548Z,1.19
2019-02-20T01:40:13.463Z,0.77
2019-02-20T01:42:47.575Z,0.56
2019-02-20T01:45:21.596Z,0.51
2019-02-20T01:47:56.354Z,0.36
2019-02-20T01:50:31.605Z,0.44
2019-02-20T01:53:10.464Z,0.44
2019-02-20T01:55:40.381Z,0.72
2019-02-20T01:58:15.875Z,0.63
2019-02-20T02:00:49.826Z,0.63
2019-02-20T02:03:23.605Z,0.39
2019-02-20T02:05:57.373Z,0.24
2019-02-20T02:08:31.473Z,0.22
2019-02-20T02:11:05.227Z,0.17
2019-02-20T02:13:40.685Z,0.57
2019-02-20T02:16:14.775Z,0.58
2019-02-20T02:18:50.314Z,0.94
2019-02-20T02:21:24.475Z,0.64
2019-02-20T02:23:58.384Z,1.10
2019-02-20T02:26:32.274Z,1.16
2019-02-20T02:29:06.096Z,1.86
2019-02-20T02:31:39.668Z,1.88
2019-02-20T02:34:13.397Z,2.02
2019-02-20T02:36:47.058Z,2.04
2019-02-20T02:39:20.729Z,1.67
2019-02-20T02:41:54.495Z,2.02
2019-02-20T02:44:29.631Z,2.12
2019-02-20T02:47:03.642Z,2.24
2019-02-20T02:49:37.121Z,2.05
2019-02-20T02:52:10.791Z,2.19
2019-02-20T02:54:44.638Z,2.42
2019-02-20T02:57:18.493Z,2.34
2019-02-20T02:59:51.732Z,2.68
2019-02-20T03:02:25.387Z,2.41
2019-02-20T03:04:58.996Z,2.75
2019-02-20T03:07:32.762Z,2.47
2019-02-20T03:10:07.427Z,2.84
2019-02-20T03:12:41.597Z,3.07
2019-02-20T03:15:15.611Z,3.14
2019-02-20T03:17:49.099Z,3.29
2019-02-20T03:20:23.027Z,3.08
2019-02-20T03:22:56.923Z,3.27
2019-02-20T03:25:30.667Z,3.15
2019-02-20T03:28:05.757Z,3.10
2019-02-20T03:30:39.488Z,3.01
2019-02-20T03:33:13.029Z,3.30
2019-02-20T03:35:46.687Z,3.30
2019-02-20T03:38:30.092Z,3.36
2019-02-20T03:40:55.234Z,4.05
2019-02-20T03:43:28.978Z,4.35
2019-02-20T03:46:03.086Z,3.85
2019-02-20T03:48:36.949Z,3.99
2019-02-20T03:51:12.478Z,3.69
2019-02-20T03:53:51.391Z,3.74
2019-02-20T03:56:22.274Z,3.58
2019-02-20T03:58:55.937Z,3.54
2019-02-20T04:01:29.486Z,3.52
2019-02-20T04:04:03.282Z,3.14
2019-02-20T04:06:38.311Z,3.18
2019-02-20T04:09:15.001Z,3.40
2019-02-20T04:11:48.591Z,3.22
2019-02-20T04:14:22.970Z,3.40
2019-02-20T04:16:57.202Z,3.61
2019-02-20T04:19:30.837Z,3.42
2019-02-20T04:22:05.871Z,3.10
2019-02-20T04:24:39.760Z,3.25
2019-02-20T04:27:13.314Z,3.08
2019-02-20T04:29:47.229Z,3.30
2019-02-20T04:32:20.896Z,3.33
2019-02-20T04:34:54.705Z,3.19
2019-02-20T04:37:28.428Z,3.37
2019-02-20T04:40:03.390Z,3.44
2019-02-20T04:42:37.530Z,3.49
2019-02-20T04:45:11.642Z,3.54
2019-02-20T04:47:45.426Z,3.24
2019-02-20T04:50:21.214Z,3.34
2019-02-20T04:52:54.807Z,3.22
2019-02-20T04:55:28.374Z,3.55
2019-02-20T04:58:19.369Z,3.51
2019-02-20T05:00:53.078Z,3.59
2019-02-20T05:03:26.878Z,3.70
2019-02-20T05:06:00.445Z,3.69
2019-02-20T05:08:33.996Z,3.59
2019-02-20T05:11:07.686Z,3.88
2019-02-20T05:13:41.287Z,3.76
2019-02-20T05:16:14.895Z,3.87
2019-02-20T05:18:48.838Z,3.89
2019-02-20T05:21:22.567Z,4.24
2019-02-20T05:23:58.725Z,4.23
2019-02-20T05:26:31.951Z,3.94
2019-02-20T05:29:06.606Z,4.07
2019-02-20T05:31:41.969Z,4.14
2019-02-20T05:34:18.523Z,3.83
2019-02-20T05:36:53.552Z,3.62
2019-02-20T05:39:27.280Z,3.71
2019-02-20T05:42:00.870Z,3.89
2019-02-20T05:44:35.908Z,4.04
2019-02-20T05:47:10.858Z,4.04
2019-02-20T05:49:46.028Z,3.90
2019-02-20T05:52:19.516Z,3.98
2019-02-20T05:54:53.400Z,3.79
2019-02-20T05:57:26.866Z,3.64
2019-02-20T06:00:01.717Z,3.63
2019-02-20T06:02:38.147Z,3.73
2019-02-20T06:05:12.378Z,3.70
2019-02-20T06:07:48.123Z,3.55
2019-02-20T06:10:21.924Z,3.47
2019-02-20T06:12:55.419Z,3.49
2019-02-20T06:15:28.791Z,3.48
2019-02-20T06:18:03.271Z,3.58
2019-02-20T06:20:36.905Z,3.55
2019-02-20T06:23:10.624Z,3.67
2019-02-20T06:25:45.527Z,3.66
2019-02-20T06:28:19.086Z,3.88
2019-02-20T06:30:53.693Z,3.94
2019-02-20T06:33:28.408Z,3.94
2019-02-20T06:36:02.047Z,3.92
2019-02-20T06:38:35.932Z,3.78
2019-02-20T06:41:09.815Z,3.81
2019-02-20T06:43:44.120Z,3.93
2019-02-20T06:46:17.875Z,3.82
2019-02-20T06:48:51.416Z,3.79
2019-02-20T06:51:25.540Z,3.37
2019-02-20T06:53:59.417Z,3.36
2019-02-20T06:56:32.955Z,3.54
2019-02-20T06:59:06.746Z,3.60
2019-02-20T07:01:42.294Z,3.64
2019-02-20T07:04:15.906Z,3.73
2019-02-20T07:07:16.061Z,3.82
2019-02-20T07:10:28.393Z,3.81
2019-02-20T07:13:05.047Z,3.75
2019-02-20T07:16:09.889Z,3.72
2019-02-20T07:18:48.052Z,3.54
2019-02-20T07:21:36.779Z,3.62
2019-02-20T07:24:17.263Z,3.57
2019-02-20T07:27:20.812Z,3.59
2019-02-20T07:30:06.029Z,3.46
2019-02-20T07:32:39.953Z,3.42
2019-02-20T07:35:14.242Z,3.34
2019-02-20T07:37:47.891Z,3.34
2019-02-20T07:40:23.032Z,3.21
2019-02-20T07:42:57.638Z,3.41
2019-02-20T07:45:34.439Z,3.40
2019-02-20T07:48:10.147Z,3.42
2019-02-20T07:50:48.706Z,3.38
2019-02-20T07:53:21.238Z,3.24
2019-02-20T07:55:55.700Z,3.28
2019-02-20T07:58:29.783Z,3.30
2019-02-20T08:01:04.125Z,3.19
2019-02-20T08:03:39.619Z,3.25
2019-02-20T08:06:13.559Z,3.15
2019-02-20T08:08:51.019Z,3.21
2019-02-20T08:11:26.329Z,3.16
2019-02-20T08:14:03.499Z,3.16
2019-02-20T08:16:39.050Z,3.14
2019-02-20T08:19:14.061Z,3.16
2019-02-20T08:21:49.018Z,3.14
2019-02-20T08:24:23.540Z,2.99
2019-02-20T08:27:00.845Z,3.02
2019-02-20T08:29:35.570Z,2.95
2019-02-20T08:32:11.570Z,2.88
2019-02-20T08:34:46.258Z,2.89
2019-02-20T08:37:20.515Z,2.95
2019-02-20T08:39:55.281Z,2.93
2019-02-20T08:42:32.811Z,2.87
2019-02-20T08:45:08.233Z,2.80
2019-02-20T08:47:46.084Z,2.63
2019-02-20T08:50:21.921Z,2.62
2019-02-20T08:52:57.623Z,2.60
2019-02-20T08:55:32.496Z,2.48
2019-02-20T08:58:08.380Z,2.45
2019-02-20T09:00:42.647Z,2.51
2019-02-20T09:03:16.878Z,2.46
2019-02-20T09:05:51.196Z,2.41
2019-02-20T09:08:25.955Z,2.28
2019-02-20T09:11:00.114Z,2.21
2019-02-20T09:13:34.402Z,2.18
2019-02-20T09:16:09.722Z,2.12
2019-02-20T09:18:44.407Z,2.09
2019-02-20T09:21:19.213Z,2.01
2019-02-20T09:23:53.370Z,1.91
2019-02-20T09:26:28.607Z,1.93
2019-02-20T09:29:04.636Z,1.90
2019-02-20T09:31:39.056Z,1.83
2019-02-20T09:34:13.498Z,1.76
2019-02-20T09:36:49.289Z,1.62
2019-02-20T09:39:37.646Z,1.52
2019-02-20T09:42:13.665Z,1.40
2019-02-20T09:44:50.205Z,1.18
2019-02-20T09:47:26.825Z,1.15
2019-02-20T09:50:01.101Z,1.25
2019-02-20T09:52:36.994Z,1.29
2019-02-20T09:55:13.503Z,1.28
2019-02-20T09:57:47.711Z,1.30
2019-02-20T10:00:26.655Z,1.28
2019-02-20T10:03:01.928Z,1.17
2019-02-20T10:05:38.806Z,1.16
2019-02-20T10:08:13.820Z,1.11
2019-02-20T10:10:50.473Z,1.02
2019-02-20T10:13:26.079Z,1.03
2019-02-20T10:16:01.046Z,1.02
2019-02-20T10:18:36.658Z,1.00
2019-02-20T10:21:13.413Z,0.90
2019-02-20T10:23:50.206Z,0.89
2019-02-20T10:26:29.473Z,0.85
2019-02-20T10:29:05.796Z,0.81
2019-02-20T10:31:40.462Z,0.81
2019-02-20T10:34:14.991Z,0.82
2019-02-20T10:36:49.586Z,0.74
2019-02-20T10:39:24.329Z,0.71
2019-02-20T10:42:02.975Z,0.65
2019-02-20T10:44:42.314Z,0.63
2019-02-20T10:47:16.657Z,0.53
2019-02-20T10:49:50.746Z,0.51
2019-02-20T10:52:27.728Z,0.36
2019-02-20T10:55:02.997Z,0.40
2019-02-20T10:57:41.025Z,0.37
2019-02-20T11:00:23.450Z,0.29
2019-02-20T11:02:51.596Z,0.34
2019-02-20T11:05:26.385Z,0.35
2019-02-20T11:08:02.246Z,0.24
2019-02-20T11:10:36.647Z,0.25
2019-02-20T11:13:11.472Z,0.25
2019-02-20T11:15:46.545Z,0.20
2019-02-20T11:18:21.171Z,0.21
2019-02-20T11:20:58.818Z,0.18
2019-02-20T11:23:34.570Z,0.18
2019-02-20T11:26:08.284Z,0.10
2019-02-20T11:28:42.403Z,0.05
2019-02-20T11:31:17.437Z,0.03
2019-02-20T11:33:51.691Z,0.08
2019-02-20T11:36:26.815Z,0.10
2019-02-20T11:39:01.505Z,0.10
2019-02-20T11:41:36.700Z,0.00
2019-02-20T11:44:21.052Z,-0.14
2019-02-20T11:46:55.464Z,-0.12
2019-02-20T11:49:29.589Z,-0.18
2019-02-20T11:52:04.646Z,-0.21
2019-02-20T11:54:47.698Z,-0.25
2019-02-20T11:57:25.814Z,-0.22
2019-02-20T12:00:01.384Z,-0.22
2019-02-20T12:02:38.455Z,-0.21
2019-02-20T12:05:14.019Z,-0.24
2019-02-20T12:07:49.509Z,-0.28
2019-02-20T12:10:24.540Z,-0.31
2019-02-20T12:12:59.421Z,-0.22
2019-02-20T12:15:34.201Z,-0.29
2019-02-20T12:18:17.015Z,-0.35
2019-02-20T12:20:47.882Z,-0.35
2019-02-20T12:23:27.415Z,-0.39
2019-02-20T12:26:03.437Z,-0.34
2019-02-20T12:28:41.299Z,-0.45
2019-02-20T12:31:18.824Z,-0.45
2019-02-20T12:33:55.919Z,-0.46
2019-02-20T12:36:30.738Z,-0.51
2019-02-20T12:39:07.626Z,-0.61
2019-02-20T12:41:42.677Z,-0.58
2019-02-20T12:44:17.404Z,-0.53
2019-02-20T12:46:52.611Z,-0.49
2019-02-20T12:49:29.334Z,-0.67
2019-02-20T12:52:11.318Z,-0.62
2019-02-20T12:54:48.519Z,-0.65
2019-02-20T12:57:24.454Z,-0.64
2019-02-20T13:00:06.076Z,-0.73
2019-02-20T13:02:43.468Z,-0.75
2019-02-20T13:05:22.503Z,-0.77
2019-02-20T13:07:58.510Z,-0.76
2019-02-20T13:10:45.984Z,-0.74
2019-02-20T13:13:23.987Z,-0.77
2019-02-20T13:16:09.547Z,-0.76
2019-02-20T13:18:43.640Z,-0.86
2019-02-20T13:21:22.259Z,-0.75
2019-02-20T13:23:58.769Z,-0.77
2019-02-20T13:26:34.463Z,-0.84
2019-02-20T13:29:15.711Z,-0.80
2019-02-20T13:31:51.696Z,-0.77
2019-02-20T13:34:28.997Z,-0.84
2019-02-20T13:37:07.663Z,-0.88
2019-02-20T13:39:47.146Z,-0.84
2019-02-20T13:42:25.108Z,-0.77
2019-02-20T13:45:01.997Z,-0.77
2019-02-20T13:47:40.391Z,-0.78
2019-02-20T13:50:16.283Z,-0.69
2019-02-20T13:52:53.513Z,-0.60
2019-02-20T13:55:34.226Z,-0.69
2019-02-20T13:58:17.702Z,-0.82
2019-02-20T14:00:52.458Z,-0.84
2019-02-20T14:03:28.798Z,-0.73
2019-02-20T14:06:05.584Z,-0.86
2019-02-20T14:08:40.184Z,-0.78
2019-02-20T14:11:18.381Z,-0.83
2019-02-20T14:13:52.719Z,-0.90
2019-02-20T14:16:28.213Z,-0.87
2019-02-20T14:19:02.735Z,-0.91
2019-02-20T14:21:37.448Z,-0.96
2019-02-20T14:24:13.176Z,-0.87
2019-02-20T14:26:47.325Z,-0.85
2019-02-20T14:29:21.424Z,-0.84
2019-02-20T14:31:57.611Z,-0.82
2019-02-20T14:34:31.563Z,-0.82
2019-02-20T14:37:05.310Z,-0.80
2019-02-20T14:39:39.285Z,-0.73
2019-02-20T14:42:14.645Z,-0.66
2019-02-20T14:44:48.503Z,-0.69
2019-02-20T14:47:22.474Z,-0.82
2019-02-20T14:49:56.508Z,-0.78
2019-02-20T14:52:30.421Z,-0.71
2019-02-20T14:55:04.445Z,-0.84
2019-02-20T14:57:38.335Z,-0.81
2019-02-20T15:00:20.703Z,-0.83
2019-02-20T15:02:54.596Z,-0.87
2019-02-20T15:05:28.302Z,-0.86
2019-02-20T15:08:03.313Z,-0.85
2019-02-20T15:10:37.800Z,-0.83
2019-02-20T15:13:13.592Z,-0.89
2019-02-20T15:15:48.114Z,-0.90
2019-02-20T15:18:22.431Z,-0.92
2019-02-20T15:20:56.317Z,-0.92
2019-02-20T15:23:30.557Z,-0.91
2019-02-20T15:26:04.920Z,-0.87
2019-02-20T15:28:38.900Z,-0.97
2019-02-20T15:34:26.868Z,-0.93
2019-02-20T15:37:03.044Z,-1.00
2019-02-20T15:39:39.032Z,-0.97
2019-02-20T15:42:13.434Z,-1.01
2019-02-20T15:44:47.214Z,-0.97
2019-02-20T15:47:21.568Z,-1.01
2019-02-20T15:49:56.773Z,-1.04
2019-02-20T15:52:32.717Z,-1.01
2019-02-20T15:55:08.375Z,-1.11
2019-02-20T15:57:42.455Z,-1.09
2019-02-20T16:00:20.312Z,-1.11
2019-02-20T16:02:54.187Z,-1.08
2019-02-20T16:05:27.782Z,-1.10
2019-02-20T16:08:01.599Z,-1.02
2019-02-20T16:10:36.026Z,-1.02
2019-02-20T16:13:09.940Z,-1.07
2019-02-20T16:15:43.891Z,-1.09
2019-02-20T16:18:19.799Z,-1.09
2019-02-20T16:20:53.249Z,-1.12
2019-02-20T16:23:27.275Z,-1.10
2019-02-20T16:26:02.179Z,-1.06
2019-02-20T16:28:36.276Z,-1.11
2019-02-20T16:31:11.757Z,-1.18
2019-02-20T16:33:45.525Z,-1.18
2019-02-20T16:36:19.334Z,-1.18
2019-02-20T16:38:53.011Z,-1.26
2019-02-20T16:41:28.603Z,-1.21
2019-02-20T16:44:02.961Z,-1.25
2019-02-20T16:46:37.601Z,-1.22
2019-02-20T16:49:11.451Z,-1.29
2019-02-20T16:51:45.391Z,-1.30
2019-02-20T16:54:19.398Z,-1.27
2019-02-20T16:56:53.449Z,-1.27
2019-02-20T16:59:27.319Z,-1.43
2019-02-20T17:02:01.039Z,-1.38
2019-02-20T17:04:34.844Z,-1.33
2019-02-20T17:07:08.984Z,-1.26
2019-02-20T17:09:42.712Z,-1.26
2019-02-20T17:12:16.720Z,-1.27
2019-02-20T17:14:50.276Z,-1.33
2019-02-20T17:17:23.791Z,-1.33
2019-02-20T17:19:57.533Z,-1.35
2019-02-20T17:22:31.182Z,-1.33
2019-02-20T17:25:05.007Z,-1.36
2019-02-20T17:27:38.994Z,-1.28
2019-02-20T17:30:18.343Z,-1.26
2019-02-20T17:32:52.576Z,-1.22
2019-02-20T17:35:27.656Z,-1.25
2019-02-20T17:38:01.147Z,-1.23
2019-02-20T17:40:34.912Z,-1.26
2019-02-20T17:43:08.659Z,-1.28
2019-02-20T17:45:42.189Z,-1.28
2019-02-20T17:48:15.878Z,-1.30
2019-02-20T17:50:49.577Z,-1.30
2019-02-20T17:53:24.589Z,-1.27
2019-02-20T17:55:59.948Z,-1.30
2019-02-20T17:58:34.093Z,-1.33
2019-02-20T18:01:08.535Z,-1.38
2019-02-20T18:03:44.032Z,-1.29
2019-02-20T18:06:18.078Z,-1.27
2019-02-20T18:08:52.064Z,-1.33
2019-02-20T18:11:25.916Z,-1.39
2019-02-20T18:14:00.096Z,-1.40
2019-02-20T18:16:33.669Z,-1.38
2019-02-20T18:19:07.393Z,-1.41
2019-02-20T18:21:41.022Z,-1.39
2019-02-20T18:24:14.653Z,-1.34
2019-02-20T18:26:48.568Z,-1.40
2019-02-20T18:29:22.175Z,-1.47
2019-02-20T18:31:55.998Z,-1.44
2019-02-20T18:34:29.555Z,-1.45
2019-02-20T18:37:03.422Z,-1.51
2019-02-20T18:39:37.337Z,-1.47
2019-02-20T18:42:10.915Z,-1.48
2019-02-20T18:44:44.659Z,-1.50
2019-02-20T18:47:18.591Z,-1.62
2019-02-20T18:49:52.427Z,-1.57
2019-02-20T18:52:25.893Z,-1.54
2019-02-20T18:55:05.952Z,-1.38
2019-02-20T18:57:36.282Z,-1.40
2019-02-20T19:00:15.567Z,-1.57
2019-02-20T19:02:50.239Z,-1.65
2019-02-20T19:05:25.391Z,-1.63
2019-02-20T19:07:59.213Z,-1.65
2019-02-20T19:10:38.434Z,-1.56
2019-02-20T19:13:41.448Z,-1.58
2019-02-20T19:16:49.248Z,-1.65
2019-02-20T19:19:50.227Z,-1.58
2019-02-20T19:23:19.518Z,-1.67
2019-02-20T19:26:07.808Z,-1.68
2019-02-20T19:28:50.052Z,-1.67
2019-02-20T19:31:38.451Z,-1.71
2019-02-20T19:34:40.088Z,-1.75
2019-02-20T19:37:19.299Z,-1.78
2019-02-20T19:39:58.326Z,-1.78
2019-02-20T19:42:53.417Z,-1.75
2019-02-20T19:45:42.802Z,-1.78
2019-02-20T19:48:25.122Z,-1.88
2019-02-20T19:51:27.223Z,-1.86
2019-02-20T19:54:18.077Z,-1.77
2019-02-20T19:57:03.304Z,-1.87
2019-02-20T19:59:57.932Z,-1.90
2019-02-20T20:02:39.687Z,-1.88
2019-02-20T20:05:35.248Z,-1.91
2019-02-20T20:08:26.062Z,-1.95
2019-02-20T20:11:08.558Z,-1.97
2019-02-20T20:13:56.440Z,-1.95
2019-02-20T20:16:54.363Z,-1.91
2019-02-20T20:19:48.463Z,-1.94
2019-02-20T20:22:40.062Z,-1.98
2019-02-20T20:25:28.377Z,-1.92
2019-02-20T20:28:19.513Z,-1.98
2019-02-20T20:31:22.940Z,-1.96
2019-02-20T20:34:20.019Z,-1.97
2019-02-20T20:36:56.390Z,-1.97
2019-02-20T20:40:02.496Z,-2.02
2019-02-20T20:42:51.907Z,-2.01
2019-02-20T20:45:43.189Z,-1.95
2019-02-20T20:48:19.655Z,-1.91
2019-02-20T20:51:47.116Z,-1.89
2019-02-20T20:54:54.399Z,-2.02
2019-02-20T20:57:48.791Z,-2.03
2019-02-20T21:04:22.216Z,-2.17
2019-02-20T21:07:43.795Z,-2.17
2019-02-20T21:10:26.558Z,-2.18
2019-02-20T21:13:09.522Z,-2.08
2019-02-20T21:15:48.531Z,-2.07
2019-02-20T21:18:36.850Z,-2.18
2019-02-20T21:21:24.653Z,-2.10
2019-02-20T21:24:19.993Z,-2.13
2019-02-20T21:27:13.587Z,-2.24
2019-02-20T21:30:07.948Z,-2.19
2019-02-20T21:32:48.827Z,-2.28
2019-02-20T21:35:47.320Z,-2.21
2019-02-20T21:38:29.586Z,-2.13
2019-02-20T21:41:20.619Z,-2.19
2019-02-20T21:44:22.632Z,-2.30
2019-02-20T21:47:05.197Z,-2.23
2019-02-20T21:50:14.327Z,-2.21
2019-02-20T21:53:12.914Z,-2.26
2019-02-20T21:56:14.883Z,-2.29
2019-02-20T21:59:10.091Z,-2.35
2019-02-20T22:02:15.746Z,-2.29
2019-02-20T22:05:21.313Z,-2.38
2019-02-20T22:08:06.665Z,-2.44
2019-02-20T22:10:57.875Z,-2.53
2019-02-20T22:13:56.267Z,-2.55
2019-02-20T22:16:55.367Z,-2.53
2019-02-20T22:19:36.892Z,-2.59
2019-02-20T22:22:43.294Z,-2.51
2019-02-20T22:25:31.536Z,-2.52
2019-02-20T22:28:27.855Z,-2.52
2019-02-20T22:31:35.441Z,-2.57
2019-02-20T22:34:12.787Z,-2.63
2019-02-20T22:37:02.298Z,-2.60
2019-02-20T22:40:04.655Z,-2.53
2019-02-20T22:42:53.089Z,-2.54
2019-02-20T22:45:41.327Z,-2.57
2019-02-20T22:48:32.788Z,-2.50
2019-02-20T22:51:17.793Z,-2.53
2019-02-20T22:54:19.748Z,-2.49
2019-02-20T22:57:17.446Z,-2.41
2019-02-20T23:00:04.265Z,-2.50
2019-02-20T23:02:57.051Z,-2.35
2019-02-20T23:06:07.268Z,-2.33
2019-02-20T23:09:09.363Z,-2.46
2019-02-20T23:12:07.853Z,-2.49
2019-02-20T23:14:59.033Z,-2.40
2019-02-20T23:17:32.623Z,-2.37
2019-02-20T23:20:07.457Z,-2.25
2019-02-20T23:22:41.259Z,-2.18
2019-02-20T23:25:14.793Z,-2.19
2019-02-20T23:27:48.365Z,-2.17
2019-02-20T23:30:21.926Z,-1.89
2019-02-20T23:32:56.894Z,-1.88
2019-02-20T23:35:31.967Z,-0.37
2019-02-20T23:38:05.473Z,-0.37
2019-02-20T23:40:40.646Z,0.19
2019-02-20T23:43:14.429Z,0.02
2019-02-20T23:45:48.237Z,-0.57
2019-02-20T23:48:21.860Z,-0.32
2019-02-20T23:50:56.918Z,0.08
2019-02-20T23:53:30.790Z,-0.40
2019-02-20T23:56:04.423Z,-0.05
2019-02-20T23:58:38.046Z,0.15
